Waubaushene, Canada
Current Conditions -  °F | °C
As of 10:00 AM on Tuesday 21 Oct 2014 (Local Time) from CYQA Reporting Station
Light Rain Light Rain  
Wind Chill: 35°   Ceiling: 1500
Heat Index: 41°   Visibility: 8mi
Dew Point: 41°   Wind: 9mph
Humidity: 100%   Direction: 30°NNE
Pressure: 29.93"   Gusts: 17mph
Location:  44.75°N, 79.7°W
Report Text: CYQA 211400Z AUTO 03008G15KT 340V070 8SM -RA SCT010 OVC015 05/05 A2993 RMK PCPN 1.5MM PAST HR SLP143
Loading
Personal Weather Stations






























Interactive Weather Map
Tropical Storm Tracking
New forecast layout! Learn more

10-Day Weather Forecast

Advertisements
Track Severe Weather on mobile